sensor_id;sensor_type;location;lat;lon;timestamp;temperature;humidity
18797;DHT22;9526;52.612;13.300;2023-02-19T00:00:12;6.30;99.90
18797;DHT22;9526;52.612;13.300;2023-02-19T00:02:36;6.30;99.90
18797;DHT22;9526;52.612;13.300;2023-02-19T00:05:00;6.30;99.90
18797;DHT22;9526;52.612;13.300;2023-02-19T00:07:23;6.20;99.90
18797;DHT22;9526;52.612;13.300;2023-02-19T00:09:47;6.30;99.90
18797;DHT22;9526;52.612;13.300;2023-02-19T00:12:12;6.30;99.90
18797;DHT22;9526;52.612;13.300;2023-02-19T00:14:36;6.20;99.90
18797;DHT22;9526;52.612;13.300;2023-02-19T00:16:59;6.30;99.90
18797;DHT22;9526;52.612;13.300;2023-02-19T00:19:23;6.20;99.90
18797;DHT22;9526;52.612;13.300;2023-02-19T00:21:47;6.20;99.90
18797;DHT22;9526;52.612;13.300;2023-02-19T00:24:13;6.20;99.90
18797;DHT22;9526;52.612;13.300;2023-02-19T00:26:37;6.20;99.90
18797;DHT22;9526;52.612;13.300;2023-02-19T00:29:03;6.30;99.90
18797;DHT22;9526;52.612;13.300;2023-02-19T00:31:28;6.20;99.90
18797;DHT22;9526;52.612;13.300;2023-02-19T00:33:55;6.20;99.90
18797;DHT22;9526;52.612;13.300;2023-02-19T00:36:20;6.30;99.90
18797;DHT22;9526;52.612;13.300;2023-02-19T00:38:45;6.20;99.90
18797;DHT22;9526;52.612;13.300;2023-02-19T00:41:10;6.20;99.90
18797;DHT22;9526;52.612;13.300;2023-02-19T00:43:45;6.20;99.90
18797;DHT22;9526;52.612;13.300;2023-02-19T00:46:10;6.20;99.90
18797;DHT22;9526;52.612;13.300;2023-02-19T00:48:34;6.20;99.90
18797;DHT22;9526;52.612;13.300;2023-02-19T00:50:58;6.20;99.90
18797;DHT22;9526;52.612;13.300;2023-02-19T00:53:21;6.20;99.90
18797;DHT22;9526;52.612;13.300;2023-02-19T00:55:45;6.20;99.90
18797;DHT22;9526;52.612;13.300;2023-02-19T00:58:09;6.20;99.90
18797;DHT22;9526;52.612;13.300;2023-02-19T01:00:32;6.20;99.90
18797;DHT22;9526;52.612;13.300;2023-02-19T01:02:58;6.20;99.90
18797;DHT22;9526;52.612;13.300;2023-02-19T01:05:21;6.10;99.90
18797;DHT22;9526;52.612;13.300;2023-02-19T01:07:45;6.10;99.90
18797;DHT22;9526;52.612;13.300;2023-02-19T01:10:09;6.00;99.90
18797;DHT22;9526;52.612;13.300;2023-02-19T01:12:33;6.00;99.90
18797;DHT22;9526;52.612;13.300;2023-02-19T01:14:56;6.00;99.90
18797;DHT22;9526;52.612;13.300;2023-02-19T01:17:20;6.00;99.90
18797;DHT22;9526;52.612;13.300;2023-02-19T01:19:45;6.00;99.90
18797;DHT22;9526;52.612;13.300;2023-02-19T01:22:09;6.00;99.90
18797;DHT22;9526;52.612;13.300;2023-02-19T01:24:33;6.00;99.90
18797;DHT22;9526;52.612;13.300;2023-02-19T01:26:56;6.00;99.90
18797;DHT22;9526;52.612;13.300;2023-02-19T01:29:20;6.00;99.90
18797;DHT22;9526;52.612;13.300;2023-02-19T01:31:44;6.00;99.90
18797;DHT22;9526;52.612;13.300;2023-02-19T01:34:09;5.90;99.90
18797;DHT22;9526;52.612;13.300;2023-02-19T01:36:35;5.90;99.90
18797;DHT22;9526;52.612;13.300;2023-02-19T01:39:03;5.90;99.90
18797;DHT22;9526;52.612;13.300;2023-02-19T01:41:28;5.90;99.90
18797;DHT22;9526;52.612;13.300;2023-02-19T01:43:58;5.90;99.90
18797;DHT22;9526;52.612;13.300;2023-02-19T01:46:24;5.80;99.90
18797;DHT22;9526;52.612;13.300;2023-02-19T01:48:49;5.80;99.90
18797;DHT22;9526;52.612;13.300;2023-02-19T01:51:14;5.80;99.90
18797;DHT22;9526;52.612;13.300;2023-02-19T01:53:44;5.80;99.90
18797;DHT22;9526;52.612;13.300;2023-02-19T01:56:09;5.80;99.90
18797;DHT22;9526;52.612;13.300;2023-02-19T01:58:35;5.80;99.90
18797;DHT22;9526;52.612;13.300;2023-02-19T02:01:01;5.70;99.90
18797;DHT22;9526;52.612;13.300;2023-02-19T02:03:27;5.60;99.90
18797;DHT22;9526;52.612;13.300;2023-02-19T02:05:55;5.60;99.90
18797;DHT22;9526;52.612;13.300;2023-02-19T02:08:23;5.60;99.90
18797;DHT22;9526;52.612;13.300;2023-02-19T02:11:05;5.70;99.90
18797;DHT22;9526;52.612;13.300;2023-02-19T02:13:32;5.70;99.90
18797;DHT22;9526;52.612;13.300;2023-02-19T02:16:05;5.70;99.90
18797;DHT22;9526;52.612;13.300;2023-02-19T02:18:44;5.70;99.90
18797;DHT22;9526;52.612;13.300;2023-02-19T02:21:34;5.60;99.90
18797;DHT22;9526;52.612;13.300;2023-02-19T02:24:16;5.60;99.90
18797;DHT22;9526;52.612;13.300;2023-02-19T02:27:04;5.60;99.90
18797;DHT22;9526;52.612;13.300;2023-02-19T02:32:44;5.70;99.90
18797;DHT22;9526;52.612;13.300;2023-02-19T02:35:15;5.60;99.90
18797;DHT22;9526;52.612;13.300;2023-02-19T02:37:43;5.60;99.90
18797;DHT22;9526;52.612;13.300;2023-02-19T02:40:10;5.60;99.90
18797;DHT22;9526;52.612;13.300;2023-02-19T02:42:36;5.50;99.90
18797;DHT22;9526;52.612;13.300;2023-02-19T02:45:24;5.50;99.90
18797;DHT22;9526;52.612;13.300;2023-02-19T02:48:28;5.50;99.90
18797;DHT22;9526;52.612;13.300;2023-02-19T02:51:01;5.50;99.90
18797;DHT22;9526;52.612;13.300;2023-02-19T02:53:39;5.50;99.90
18797;DHT22;9526;52.612;13.300;2023-02-19T02:56:24;5.50;99.90
18797;DHT22;9526;52.612;13.300;2023-02-19T02:58:49;5.40;99.90
18797;DHT22;9526;52.612;13.300;2023-02-19T03:01:18;5.40;99.90
18797;DHT22;9526;52.612;13.300;2023-02-19T03:04:07;5.40;99.90
18797;DHT22;9526;52.612;13.300;2023-02-19T03:06:34;5.40;99.90
18797;DHT22;9526;52.612;13.300;2023-02-19T03:09:03;5.30;99.90
18797;DHT22;9526;52.612;13.300;2023-02-19T03:11:31;5.30;99.90
18797;DHT22;9526;52.612;13.300;2023-02-19T03:14:16;5.30;99.90
18797;DHT22;9526;52.612;13.300;2023-02-19T03:17:05;5.30;99.90
18797;DHT22;9526;52.612;13.300;2023-02-19T03:19:53;5.30;99.90
18797;DHT22;9526;52.612;13.300;2023-02-19T03:22:22;5.30;99.90
18797;DHT22;9526;52.612;13.300;2023-02-19T03:24:50;5.20;99.90
18797;DHT22;9526;52.612;13.300;2023-02-19T03:27:35;5.20;99.90
18797;DHT22;9526;52.612;13.300;2023-02-19T03:30:03;5.00;99.90
18797;DHT22;9526;52.612;13.300;2023-02-19T03:32:37;5.00;99.90
18797;DHT22;9526;52.612;13.300;2023-02-19T03:35:06;5.00;99.90
18797;DHT22;9526;52.612;13.300;2023-02-19T03:37:37;5.00;99.90
18797;DHT22;9526;52.612;13.300;2023-02-19T03:40:04;4.90;99.90
18797;DHT22;9526;52.612;13.300;2023-02-19T03:42:35;4.90;99.90
18797;DHT22;9526;52.612;13.300;2023-02-19T03:45:17;4.90;99.90
18797;DHT22;9526;52.612;13.300;2023-02-19T03:48:04;4.90;99.90
18797;DHT22;9526;52.612;13.300;2023-02-19T03:50:38;4.90;99.90
18797;DHT22;9526;52.612;13.300;2023-02-19T03:53:11;4.80;99.90
18797;DHT22;9526;52.612;13.300;2023-02-19T03:55:44;4.70;99.90
18797;DHT22;9526;52.612;13.300;2023-02-19T03:58:15;4.70;99.90
18797;DHT22;9526;52.612;13.300;2023-02-19T04:00:50;4.80;99.90
18797;DHT22;9526;52.612;13.300;2023-02-19T04:03:22;4.70;99.90
18797;DHT22;9526;52.612;13.300;2023-02-19T04:05:52;4.70;99.90
18797;DHT22;9526;52.612;13.300;2023-02-19T04:08:20;4.60;99.90
18797;DHT22;9526;52.612;13.300;2023-02-19T04:10:52;4.50;99.90
18797;DHT22;9526;52.612;13.300;2023-02-19T04:13:23;4.50;99.90
18797;DHT22;9526;52.612;13.300;2023-02-19T04:15:50;4.40;99.90
18797;DHT22;9526;52.612;13.300;2023-02-19T04:18:19;4.40;99.90
18797;DHT22;9526;52.612;13.300;2023-02-19T04:20:47;4.40;99.90
18797;DHT22;9526;52.612;13.300;2023-02-19T04:23:11;4.40;99.90
18797;DHT22;9526;52.612;13.300;2023-02-19T04:25:37;4.40;99.90
18797;DHT22;9526;52.612;13.300;2023-02-19T04:28:02;4.40;99.90
18797;DHT22;9526;52.612;13.300;2023-02-19T04:30:26;4.40;99.90
18797;DHT22;9526;52.612;13.300;2023-02-19T04:32:49;4.40;99.90
18797;DHT22;9526;52.612;13.300;2023-02-19T04:35:15;4.40;99.90
18797;DHT22;9526;52.612;13.300;2023-02-19T04:37:38;4.30;99.90
18797;DHT22;9526;52.612;13.300;2023-02-19T04:40:02;4.30;99.90
18797;DHT22;9526;52.612;13.300;2023-02-19T04:42:26;4.30;99.90
18797;DHT22;9526;52.612;13.300;2023-02-19T04:44:50;4.30;99.90
18797;DHT22;9526;52.612;13.300;2023-02-19T04:47:14;4.20;99.90
18797;DHT22;9526;52.612;13.300;2023-02-19T04:49:38;4.20;99.90
18797;DHT22;9526;52.612;13.300;2023-02-19T04:52:03;4.20;99.90
18797;DHT22;9526;52.612;13.300;2023-02-19T04:54:27;4.20;99.90
18797;DHT22;9526;52.612;13.300;2023-02-19T04:56:51;4.20;99.90
18797;DHT22;9526;52.612;13.300;2023-02-19T04:59:15;4.20;99.90
18797;DHT22;9526;52.612;13.300;2023-02-19T05:01:38;4.20;99.90
18797;DHT22;9526;52.612;13.300;2023-02-19T05:04:02;4.20;99.90
18797;DHT22;9526;52.612;13.300;2023-02-19T05:06:26;4.10;99.90
18797;DHT22;9526;52.612;13.300;2023-02-19T05:08:52;4.10;99.90
18797;DHT22;9526;52.612;13.300;2023-02-19T05:11:15;4.10;99.90
18797;DHT22;9526;52.612;13.300;2023-02-19T05:13:39;4.00;99.90
18797;DHT22;9526;52.612;13.300;2023-02-19T05:16:05;4.00;99.90
18797;DHT22;9526;52.612;13.300;2023-02-19T05:18:31;4.00;99.90
18797;DHT22;9526;52.612;13.300;2023-02-19T05:20:57;4.10;99.90
18797;DHT22;9526;52.612;13.300;2023-02-19T05:23:21;4.10;99.90
18797;DHT22;9526;52.612;13.300;2023-02-19T05:25:47;4.20;99.90
18797;DHT22;9526;52.612;13.300;2023-02-19T05:28:11;4.10;99.90
18797;DHT22;9526;52.612;13.300;2023-02-19T05:30:41;4.10;99.90
18797;DHT22;9526;52.612;13.300;2023-02-19T05:33:05;4.10;99.90
18797;DHT22;9526;52.612;13.300;2023-02-19T05:35:29;4.10;99.90
18797;DHT22;9526;52.612;13.300;2023-02-19T05:37:52;4.10;99.90
18797;DHT22;9526;52.612;13.300;2023-02-19T05:40:16;4.10;99.90
18797;DHT22;9526;52.612;13.300;2023-02-19T05:42:41;4.10;99.90
18797;DHT22;9526;52.612;13.300;2023-02-19T05:45:06;4.00;99.90
18797;DHT22;9526;52.612;13.300;2023-02-19T05:47:30;4.00;99.90
18797;DHT22;9526;52.612;13.300;2023-02-19T05:49:54;4.10;99.90
18797;DHT22;9526;52.612;13.300;2023-02-19T05:52:17;4.00;99.90
18797;DHT22;9526;52.612;13.300;2023-02-19T05:54:41;4.10;99.90
18797;DHT22;9526;52.612;13.300;2023-02-19T05:57:04;4.00;99.90
18797;DHT22;9526;52.612;13.300;2023-02-19T05:59:29;4.10;99.90
18797;DHT22;9526;52.612;13.300;2023-02-19T06:01:53;4.10;99.90
18797;DHT22;9526;52.612;13.300;2023-02-19T06:04:19;4.00;99.90
18797;DHT22;9526;52.612;13.300;2023-02-19T06:06:43;4.00;99.90
18797;DHT22;9526;52.612;13.300;2023-02-19T06:09:07;4.10;99.90
18797;DHT22;9526;52.612;13.300;2023-02-19T06:11:32;4.10;99.90
18797;DHT22;9526;52.612;13.300;2023-02-19T06:13:55;4.10;99.90
18797;DHT22;9526;52.612;13.300;2023-02-19T06:16:20;4.00;99.90
18797;DHT22;9526;52.612;13.300;2023-02-19T06:18:45;4.00;99.90
18797;DHT22;9526;52.612;13.300;2023-02-19T06:21:11;4.00;99.90
18797;DHT22;9526;52.612;13.300;2023-02-19T06:23:36;4.00;99.90
18797;DHT22;9526;52.612;13.300;2023-02-19T06:26:06;4.10;99.90
18797;DHT22;9526;52.612;13.300;2023-02-19T06:28:31;4.10;99.90
18797;DHT22;9526;52.612;13.300;2023-02-19T06:30:54;4.00;99.90
18797;DHT22;9526;52.612;13.300;2023-02-19T06:33:21;4.00;99.90
18797;DHT22;9526;52.612;13.300;2023-02-19T06:35:45;4.00;99.90
18797;DHT22;9526;52.612;13.300;2023-02-19T06:38:09;4.00;99.90
18797;DHT22;9526;52.612;13.300;2023-02-19T06:40:32;4.00;99.90
18797;DHT22;9526;52.612;13.300;2023-02-19T06:42:56;4.10;99.90
18797;DHT22;9526;52.612;13.300;2023-02-19T06:45:20;4.00;99.90
18797;DHT22;9526;52.612;13.300;2023-02-19T06:47:43;4.00;99.90
18797;DHT22;9526;52.612;13.300;2023-02-19T06:50:08;4.00;99.90
18797;DHT22;9526;52.612;13.300;2023-02-19T06:52:32;4.00;99.90
18797;DHT22;9526;52.612;13.300;2023-02-19T06:54:56;4.00;99.90
18797;DHT22;9526;52.612;13.300;2023-02-19T06:57:19;4.00;99.90
18797;DHT22;9526;52.612;13.300;2023-02-19T06:59:43;4.00;99.90
18797;DHT22;9526;52.612;13.300;2023-02-19T07:02:09;4.00;99.90
18797;DHT22;9526;52.612;13.300;2023-02-19T07:04:33;4.00;99.90
18797;DHT22;9526;52.612;13.300;2023-02-19T07:06:58;4.00;99.90
18797;DHT22;9526;52.612;13.300;2023-02-19T07:09:22;4.10;99.90
18797;DHT22;9526;52.612;13.300;2023-02-19T07:11:46;4.00;99.90
18797;DHT22;9526;52.612;13.300;2023-02-19T07:14:13;4.00;99.90
18797;DHT22;9526;52.612;13.300;2023-02-19T07:16:38;4.00;99.90
18797;DHT22;9526;52.612;13.300;2023-02-19T07:19:02;4.00;99.90
18797;DHT22;9526;52.612;13.300;2023-02-19T07:21:26;4.10;99.90
18797;DHT22;9526;52.612;13.300;2023-02-19T07:23:52;4.10;99.90
18797;DHT22;9526;52.612;13.300;2023-02-19T07:26:17;4.20;99.90
18797;DHT22;9526;52.612;13.300;2023-02-19T07:28:42;4.20;99.90
18797;DHT22;9526;52.612;13.300;2023-02-19T07:31:10;4.30;99.90
18797;DHT22;9526;52.612;13.300;2023-02-19T07:33:34;4.30;99.90
18797;DHT22;9526;52.612;13.300;2023-02-19T07:35:58;4.30;99.90
18797;DHT22;9526;52.612;13.300;2023-02-19T07:38:23;4.30;99.90
18797;DHT22;9526;52.612;13.300;2023-02-19T07:40:53;4.40;99.90
18797;DHT22;9526;52.612;13.300;2023-02-19T07:43:18;4.40;99.90
18797;DHT22;9526;52.612;13.300;2023-02-19T07:45:42;4.30;99.90
18797;DHT22;9526;52.612;13.300;2023-02-19T07:48:06;4.40;99.90
18797;DHT22;9526;52.612;13.300;2023-02-19T07:50:29;4.40;99.90
18797;DHT22;9526;52.612;13.300;2023-02-19T07:52:53;4.40;99.90
18797;DHT22;9526;52.612;13.300;2023-02-19T07:55:17;4.50;99.90
18797;DHT22;9526;52.612;13.300;2023-02-19T07:57:42;4.60;99.90
18797;DHT22;9526;52.612;13.300;2023-02-19T08:00:06;4.60;99.90
18797;DHT22;9526;52.612;13.300;2023-02-19T08:02:36;4.60;99.90
18797;DHT22;9526;52.612;13.300;2023-02-19T08:05:25;4.60;99.90
18797;DHT22;9526;52.612;13.300;2023-02-19T08:07:49;4.70;99.90
18797;DHT22;9526;52.612;13.300;2023-02-19T08:10:13;4.60;99.90
18797;DHT22;9526;52.612;13.300;2023-02-19T08:12:56;4.70;99.90
18797;DHT22;9526;52.612;13.300;2023-02-19T08:15:37;4.70;99.90
18797;DHT22;9526;52.612;13.300;2023-02-19T08:18:01;4.70;99.90
18797;DHT22;9526;52.612;13.300;2023-02-19T08:20:25;4.70;99.90
18797;DHT22;9526;52.612;13.300;2023-02-19T08:22:48;4.90;99.90
18797;DHT22;9526;52.612;13.300;2023-02-19T08:25:12;4.90;99.90
18797;DHT22;9526;52.612;13.300;2023-02-19T08:27:36;4.90;99.90
18797;DHT22;9526;52.612;13.300;2023-02-19T08:30:01;4.90;99.90
18797;DHT22;9526;52.612;13.300;2023-02-19T08:32:25;5.00;99.90
18797;DHT22;9526;52.612;13.300;2023-02-19T08:34:49;5.10;99.90
18797;DHT22;9526;52.612;13.300;2023-02-19T08:37:12;5.10;99.90
18797;DHT22;9526;52.612;13.300;2023-02-19T08:39:37;5.30;99.90
18797;DHT22;9526;52.612;13.300;2023-02-19T08:42:00;5.60;99.90
18797;DHT22;9526;52.612;13.300;2023-02-19T08:44:24;5.80;99.90
18797;DHT22;9526;52.612;13.300;2023-02-19T08:46:49;6.00;99.90
18797;DHT22;9526;52.612;13.300;2023-02-19T08:49:13;6.20;99.90
18797;DHT22;9526;52.612;13.300;2023-02-19T08:51:37;6.30;99.90
18797;DHT22;9526;52.612;13.300;2023-02-19T08:54:02;6.20;99.90
18797;DHT22;9526;52.612;13.300;2023-02-19T08:56:26;6.30;99.90
18797;DHT22;9526;52.612;13.300;2023-02-19T08:58:49;6.30;99.90
18797;DHT22;9526;52.612;13.300;2023-02-19T09:01:15;6.20;99.90
18797;DHT22;9526;52.612;13.300;2023-02-19T09:03:41;6.10;99.90
18797;DHT22;9526;52.612;13.300;2023-02-19T09:06:05;6.10;99.90
18797;DHT22;9526;52.612;13.300;2023-02-19T09:08:29;6.20;99.90
18797;DHT22;9526;52.612;13.300;2023-02-19T09:10:59;6.30;99.90
18797;DHT22;9526;52.612;13.300;2023-02-19T09:13:24;6.40;99.90
18797;DHT22;9526;52.612;13.300;2023-02-19T09:15:48;6.50;99.90
18797;DHT22;9526;52.612;13.300;2023-02-19T09:18:11;6.50;99.90
18797;DHT22;9526;52.612;13.300;2023-02-19T09:20:36;6.50;99.90
18797;DHT22;9526;52.612;13.300;2023-02-19T09:23:00;6.50;99.90
18797;DHT22;9526;52.612;13.300;2023-02-19T09:25:24;6.60;99.90
18797;DHT22;9526;52.612;13.300;2023-02-19T09:27:48;6.70;99.90
18797;DHT22;9526;52.612;13.300;2023-02-19T09:30:12;6.90;99.90
18797;DHT22;9526;52.612;13.300;2023-02-19T09:32:35;7.00;99.90
18797;DHT22;9526;52.612;13.300;2023-02-19T09:34:59;7.20;99.90
18797;DHT22;9526;52.612;13.300;2023-02-19T09:37:26;7.00;99.90
18797;DHT22;9526;52.612;13.300;2023-02-19T09:39:50;7.10;99.90
18797;DHT22;9526;52.612;13.300;2023-02-19T09:42:17;7.00;99.90
18797;DHT22;9526;52.612;13.300;2023-02-19T09:44:44;7.10;99.90
18797;DHT22;9526;52.612;13.300;2023-02-19T09:47:15;7.30;99.90
18797;DHT22;9526;52.612;13.300;2023-02-19T09:49:41;7.20;99.90
18797;DHT22;9526;52.612;13.300;2023-02-19T09:52:13;7.30;99.90
18797;DHT22;9526;52.612;13.300;2023-02-19T09:54:42;7.40;99.90
18797;DHT22;9526;52.612;13.300;2023-02-19T09:57:13;7.50;99.90
18797;DHT22;9526;52.612;13.300;2023-02-19T09:59:40;7.50;99.90
18797;DHT22;9526;52.612;13.300;2023-02-19T10:02:12;7.50;99.90
18797;DHT22;9526;52.612;13.300;2023-02-19T10:04:40;7.50;99.90
18797;DHT22;9526;52.612;13.300;2023-02-19T10:07:07;7.60;99.90
18797;DHT22;9526;52.612;13.300;2023-02-19T10:09:33;7.70;99.90
18797;DHT22;9526;52.612;13.300;2023-02-19T10:11:58;7.80;99.90
18797;DHT22;9526;52.612;13.300;2023-02-19T10:14:29;8.00;99.90
18797;DHT22;9526;52.612;13.300;2023-02-19T10:16:59;8.40;99.90
18797;DHT22;9526;52.612;13.300;2023-02-19T10:19:25;8.60;99.90
18797;DHT22;9526;52.612;13.300;2023-02-19T10:21:49;8.40;99.90
18797;DHT22;9526;52.612;13.300;2023-02-19T10:24:18;8.40;99.90
18797;DHT22;9526;52.612;13.300;2023-02-19T10:26:43;8.00;99.90
18797;DHT22;9526;52.612;13.300;2023-02-19T10:29:08;7.90;99.90
18797;DHT22;9526;52.612;13.300;2023-02-19T10:31:32;8.20;99.90
18797;DHT22;9526;52.612;13.300;2023-02-19T10:33:58;8.50;99.90
18797;DHT22;9526;52.612;13.300;2023-02-19T10:36:26;9.20;99.90
18797;DHT22;9526;52.612;13.300;2023-02-19T10:38:53;9.70;99.90
18797;DHT22;9526;52.612;13.300;2023-02-19T10:41:18;10.00;99.90
18797;DHT22;9526;52.612;13.300;2023-02-19T10:43:51;10.20;99.90
18797;DHT22;9526;52.612;13.300;2023-02-19T10:46:21;10.10;99.90
18797;DHT22;9526;52.612;13.300;2023-02-19T10:48:51;9.70;99.90
18797;DHT22;9526;52.612;13.300;2023-02-19T10:51:15;9.00;99.90
18797;DHT22;9526;52.612;13.300;2023-02-19T10:53:44;9.10;99.90
18797;DHT22;9526;52.612;13.300;2023-02-19T10:56:11;9.20;99.90
18797;DHT22;9526;52.612;13.300;2023-02-19T10:58:36;9.30;99.90
18797;DHT22;9526;52.612;13.300;2023-02-19T11:01:20;9.40;99.90
18797;DHT22;9526;52.612;13.300;2023-02-19T11:03:46;9.30;99.90
18797;DHT22;9526;52.612;13.300;2023-02-19T11:06:12;9.40;99.90
18797;DHT22;9526;52.612;13.300;2023-02-19T11:08:46;9.30;99.90
18797;DHT22;9526;52.612;13.300;2023-02-19T11:11:25;9.20;99.90
18797;DHT22;9526;52.612;13.300;2023-02-19T11:13:55;9.00;99.90
18797;DHT22;9526;52.612;13.300;2023-02-19T11:16:21;9.00;99.90
18797;DHT22;9526;52.612;13.300;2023-02-19T11:18:52;9.20;99.90
18797;DHT22;9526;52.612;13.300;2023-02-19T11:21:24;8.80;99.90
18797;DHT22;9526;52.612;13.300;2023-02-19T11:23:54;8.80;99.90
18797;DHT22;9526;52.612;13.300;2023-02-19T11:26:19;8.50;99.90
18797;DHT22;9526;52.612;13.300;2023-02-19T11:28:45;8.50;99.90
18797;DHT22;9526;52.612;13.300;2023-02-19T11:31:24;8.50;99.90
18797;DHT22;9526;52.612;13.300;2023-02-19T11:33:55;8.20;99.90
18797;DHT22;9526;52.612;13.300;2023-02-19T11:36:25;8.20;99.90
18797;DHT22;9526;52.612;13.300;2023-02-19T11:38:51;8.40;99.90
18797;DHT22;9526;52.612;13.300;2023-02-19T11:41:21;8.60;99.90
18797;DHT22;9526;52.612;13.300;2023-02-19T11:44:06;8.50;99.90
18797;DHT22;9526;52.612;13.300;2023-02-19T11:46:42;8.60;99.90
18797;DHT22;9526;52.612;13.300;2023-02-19T11:49:20;8.70;99.90
18797;DHT22;9526;52.612;13.300;2023-02-19T11:52:14;8.80;99.90
18797;DHT22;9526;52.612;13.300;2023-02-19T11:54:49;8.80;99.90
18797;DHT22;9526;52.612;13.300;2023-02-19T11:57:22;8.70;99.90
18797;DHT22;9526;52.612;13.300;2023-02-19T12:00:01;8.70;99.90
18797;DHT22;9526;52.612;13.300;2023-02-19T12:02:53;8.50;99.90
18797;DHT22;9526;52.612;13.300;2023-02-19T12:05:34;8.30;99.90
18797;DHT22;9526;52.612;13.300;2023-02-19T12:08:23;8.30;99.90
18797;DHT22;9526;52.612;13.300;2023-02-19T12:11:34;8.10;99.90
18797;DHT22;9526;52.612;13.300;2023-02-19T12:14:38;7.80;99.90
18797;DHT22;9526;52.612;13.300;2023-02-19T12:17:34;7.60;99.90
18797;DHT22;9526;52.612;13.300;2023-02-19T12:20:16;7.60;99.90
18797;DHT22;9526;52.612;13.300;2023-02-19T12:22:50;7.70;99.90
18797;DHT22;9526;52.612;13.300;2023-02-19T12:25:41;7.80;99.90
18797;DHT22;9526;52.612;13.300;2023-02-19T12:28:22;8.10;99.90
18797;DHT22;9526;52.612;13.300;2023-02-19T12:37:12;8.50;99.90
18797;DHT22;9526;52.612;13.300;2023-02-19T12:39:46;8.50;99.90
18797;DHT22;9526;52.612;13.300;2023-02-19T12:42:27;8.70;99.90
18797;DHT22;9526;52.612;13.300;2023-02-19T12:45:05;8.70;99.90
18797;DHT22;9526;52.612;13.300;2023-02-19T12:47:36;8.50;99.90
18797;DHT22;9526;52.612;13.300;2023-02-19T12:50:07;8.50;99.90
18797;DHT22;9526;52.612;13.300;2023-02-19T12:52:42;8.30;99.90
18797;DHT22;9526;52.612;13.300;2023-02-19T12:55:18;8.20;99.90
18797;DHT22;9526;52.612;13.300;2023-02-19T12:57:44;8.10;99.90
18797;DHT22;9526;52.612;13.300;2023-02-19T13:00:22;8.00;99.90
18797;DHT22;9526;52.612;13.300;2023-02-19T13:02:54;7.90;99.90
18797;DHT22;9526;52.612;13.300;2023-02-19T13:05:30;7.80;99.90
18797;DHT22;9526;52.612;13.300;2023-02-19T13:08:04;7.70;99.90
18797;DHT22;9526;52.612;13.300;2023-02-19T13:10:35;7.70;99.90
18797;DHT22;9526;52.612;13.300;2023-02-19T13:13:05;7.70;99.90
18797;DHT22;9526;52.612;13.300;2023-02-19T13:15:33;7.70;99.90
18797;DHT22;9526;52.612;13.300;2023-02-19T13:17:58;7.60;99.90
18797;DHT22;9526;52.612;13.300;2023-02-19T13:20:26;7.60;99.90
18797;DHT22;9526;52.612;13.300;2023-02-19T13:22:59;7.70;99.90
18797;DHT22;9526;52.612;13.300;2023-02-19T13:25:55;7.60;99.90
18797;DHT22;9526;52.612;13.300;2023-02-19T13:28:42;7.50;99.90
18797;DHT22;9526;52.612;13.300;2023-02-19T13:31:26;7.30;99.90
18797;DHT22;9526;52.612;13.300;2023-02-19T13:34:06;7.30;99.90
18797;DHT22;9526;52.612;13.300;2023-02-19T13:36:35;7.30;99.90
18797;DHT22;9526;52.612;13.300;2023-02-19T13:39:03;7.20;99.90
18797;DHT22;9526;52.612;13.300;2023-02-19T13:41:30;7.10;99.90
18797;DHT22;9526;52.612;13.300;2023-02-19T13:43:58;7.10;99.90
18797;DHT22;9526;52.612;13.300;2023-02-19T13:46:23;7.20;99.90
18797;DHT22;9526;52.612;13.300;2023-02-19T13:48:47;7.20;99.90
18797;DHT22;9526;52.612;13.300;2023-02-19T13:51:52;7.30;99.90
18797;DHT22;9526;52.612;13.300;2023-02-19T13:54:25;7.40;99.90
18797;DHT22;9526;52.612;13.300;2023-02-19T13:56:59;7.50;99.90
18797;DHT22;9526;52.612;13.300;2023-02-19T13:59:45;7.60;99.90
18797;DHT22;9526;52.612;13.300;2023-02-19T14:04:57;7.80;99.90
18797;DHT22;9526;52.612;13.300;2023-02-19T14:10:49;7.80;99.90
18797;DHT22;9526;52.612;13.300;2023-02-19T14:17:27;7.90;99.90
18797;DHT22;9526;52.612;13.300;2023-02-19T14:20:00;7.90;99.90
18797;DHT22;9526;52.612;13.300;2023-02-19T14:25:49;7.80;99.90
18797;DHT22;9526;52.612;13.300;2023-02-19T14:28:36;7.80;99.90
18797;DHT22;9526;52.612;13.300;2023-02-19T14:31:26;7.90;99.90
18797;DHT22;9526;52.612;13.300;2023-02-19T14:33:54;7.70;99.90
18797;DHT22;9526;52.612;13.300;2023-02-19T14:36:27;7.50;99.90
18797;DHT22;9526;52.612;13.300;2023-02-19T14:38:55;7.50;99.90
18797;DHT22;9526;52.612;13.300;2023-02-19T14:41:20;7.40;99.90
18797;DHT22;9526;52.612;13.300;2023-02-19T14:43:46;7.40;99.90
18797;DHT22;9526;52.612;13.300;2023-02-19T14:46:19;7.30;99.90
18797;DHT22;9526;52.612;13.300;2023-02-19T14:48:48;7.40;99.90
18797;DHT22;9526;52.612;13.300;2023-02-19T14:51:20;7.30;99.90
18797;DHT22;9526;52.612;13.300;2023-02-19T14:53:48;7.20;99.90
18797;DHT22;9526;52.612;13.300;2023-02-19T14:56:19;7.20;99.90
18797;DHT22;9526;52.612;13.300;2023-02-19T14:58:44;7.20;99.90
18797;DHT22;9526;52.612;13.300;2023-02-19T15:01:25;7.20;99.90
18797;DHT22;9526;52.612;13.300;2023-02-19T15:03:53;7.10;99.90
18797;DHT22;9526;52.612;13.300;2023-02-19T15:06:19;7.10;99.90
18797;DHT22;9526;52.612;13.300;2023-02-19T15:08:46;7.10;99.90
18797;DHT22;9526;52.612;13.300;2023-02-19T15:11:16;7.10;99.90
18797;DHT22;9526;52.612;13.300;2023-02-19T15:13:42;7.00;99.90
18797;DHT22;9526;52.612;13.300;2023-02-19T15:16:10;6.90;99.90
18797;DHT22;9526;52.612;13.300;2023-02-19T15:18:38;6.90;99.90
18797;DHT22;9526;52.612;13.300;2023-02-19T15:21:03;6.90;99.90
18797;DHT22;9526;52.612;13.300;2023-02-19T15:23:45;6.80;99.90
18797;DHT22;9526;52.612;13.300;2023-02-19T15:26:18;6.80;99.90
18797;DHT22;9526;52.612;13.300;2023-02-19T15:28:43;6.70;99.90
18797;DHT22;9526;52.612;13.300;2023-02-19T15:31:13;6.60;99.90
18797;DHT22;9526;52.612;13.300;2023-02-19T15:33:37;6.60;99.90
18797;DHT22;9526;52.612;13.300;2023-02-19T15:36:03;6.60;99.90
18797;DHT22;9526;52.612;13.300;2023-02-19T15:38:28;6.60;99.90
18797;DHT22;9526;52.612;13.300;2023-02-19T15:40:55;6.60;99.90
18797;DHT22;9526;52.612;13.300;2023-02-19T15:43:23;6.50;99.90
18797;DHT22;9526;52.612;13.300;2023-02-19T15:45:48;6.50;99.90
18797;DHT22;9526;52.612;13.300;2023-02-19T15:48:15;6.40;99.90
18797;DHT22;9526;52.612;13.300;2023-02-19T15:50:43;6.30;99.90
18797;DHT22;9526;52.612;13.300;2023-02-19T15:53:12;6.30;99.90
18797;DHT22;9526;52.612;13.300;2023-02-19T15:55:40;6.30;99.90
18797;DHT22;9526;52.612;13.300;2023-02-19T15:58:11;6.20;99.90
18797;DHT22;9526;52.612;13.300;2023-02-19T16:00:39;6.20;99.90
18797;DHT22;9526;52.612;13.300;2023-02-19T16:03:14;6.10;99.90
18797;DHT22;9526;52.612;13.300;2023-02-19T16:05:40;6.10;99.90
18797;DHT22;9526;52.612;13.300;2023-02-19T16:08:05;6.00;99.90
18797;DHT22;9526;52.612;13.300;2023-02-19T16:10:30;6.00;99.90
18797;DHT22;9526;52.612;13.300;2023-02-19T16:12:55;5.90;99.90
18797;DHT22;9526;52.612;13.300;2023-02-19T16:15:21;5.80;99.90
18797;DHT22;9526;52.612;13.300;2023-02-19T16:17:45;5.80;99.90